Time;durP1;ratioP1;P1;durP2;ratioP2;P2;SDS_P1;SDS_P2;PMS_P1;PMS_P2;Temp;Humidity;BMP_temperature;BMP_pressure;BME280_temperature;BME280_humidity;BME280_pressure;Samples;Min_cycle;Max_cycle;Signal;HPM_P1;HPM_P2
2023/11/27 00:02:06;;;;;;;8.90;6.70;;;;;;;;;;5028223;28;20410;-44
2023/11/27 00:04:32;;;;;;;9.32;7.32;;;;;;;;;;5021887;28;20666;-44
2023/11/27 00:06:58;;;;;;;9.82;7.90;;;;;;;;;;5021264;28;20208;-44
2023/11/27 00:09:24;;;;;;;10.77;7.90;;;;;;;;;;5023372;28;20210;-44
2023/11/27 00:11:50;;;;;;;9.40;7.35;;;;;;;;;;5022627;28;20169;-44
2023/11/27 00:14:16;;;;;;;9.90;8.30;;;;;;;;;;5023693;28;20640;-44
2023/11/27 00:16:42;;;;;;;10.77;8.57;;;;;;;;;;5026608;28;20860;-44
2023/11/27 00:19:08;;;;;;;16.10;11.43;;;;;;;;;;5027026;28;20446;-44
2023/11/27 00:21:34;;;;;;;10.33;8.80;;;;;;;;;;5020077;28;20598;-44
2023/11/27 00:24:00;;;;;;;10.48;8.15;;;;;;;;;;5022365;28;20911;-44
2023/11/27 00:26:26;;;;;;;8.60;6.78;;;;;;;;;;5024427;28;20695;-44
2023/11/27 00:28:52;;;;;;;9.90;8.10;;;;;;;;;;5025255;28;20187;-43
2023/11/27 00:31:18;;;;;;;10.57;8.35;;;;;;;;;;5023782;28;20410;-43
2023/11/27 00:33:45;;;;;;;10.00;7.78;;;;;;;;;;5024631;28;20196;-44
2023/11/27 00:36:12;;;;;;;10.73;9.27;;;;;;;;;;5024684;28;20663;-44
2023/11/27 00:38:38;;;;;;;8.25;6.55;;;;;;;;;;5018973;28;20195;-43
2023/11/27 00:41:05;;;;;;;10.95;9.80;;;;;;;;;;5025606;28;20176;-44
2023/11/27 00:43:31;;;;;;;10.15;8.20;;;;;;;;;;5022988;28;20179;-44
2023/11/27 00:45:57;;;;;;;9.57;8.50;;;;;;;;;;5022616;28;20203;-44
2023/11/27 00:48:23;;;;;;;10.73;9.00;;;;;;;;;;5023797;28;20451;-44
2023/11/27 00:50:49;;;;;;;10.77;9.53;;;;;;;;;;5022291;28;20420;-44
2023/11/27 00:53:15;;;;;;;11.20;9.77;;;;;;;;;;5022686;28;20417;-44
2023/11/27 00:55:41;;;;;;;13.37;11.30;;;;;;;;;;5021624;28;20454;-44
2023/11/27 00:58:07;;;;;;;11.37;10.20;;;;;;;;;;5027422;28;20831;-44
2023/11/27 01:00:34;;;;;;;10.60;9.50;;;;;;;;;;5021244;28;20456;-44
2023/11/27 01:03:00;;;;;;;10.93;8.43;;;;;;;;;;5020464;28;20409;-44
2023/11/27 01:05:26;;;;;;;10.57;8.65;;;;;;;;;;5022473;28;20641;-44
2023/11/27 01:07:52;;;;;;;9.60;7.83;;;;;;;;;;5021062;28;20231;-44
2023/11/27 01:10:18;;;;;;;10.80;9.00;;;;;;;;;;5022396;28;20403;-44
2023/11/27 01:12:44;;;;;;;10.00;8.37;;;;;;;;;;5025791;28;20437;-44
2023/11/27 01:15:13;;;;;;;12.20;10.15;;;;;;;;;;5025681;28;20417;-44
2023/11/27 01:17:39;;;;;;;11.05;8.38;;;;;;;;;;5019841;28;20249;-44
2023/11/27 01:20:07;;;;;;;10.38;8.05;;;;;;;;;;5018078;28;20557;-44
2023/11/27 01:22:33;;;;;;;9.48;7.80;;;;;;;;;;5011982;28;20164;-44
2023/11/27 01:24:59;;;;;;;9.40;7.50;;;;;;;;;;5023773;28;20179;-44
2023/11/27 01:27:25;;;;;;;11.68;8.93;;;;;;;;;;5023185;28;20208;-44
2023/11/27 01:29:51;;;;;;;11.47;9.37;;;;;;;;;;5022831;28;20187;-44
2023/11/27 01:32:17;;;;;;;11.50;9.47;;;;;;;;;;5023692;28;20424;-44
2023/11/27 01:34:43;;;;;;;9.87;7.30;;;;;;;;;;5019071;28;20415;-44
2023/11/27 01:37:09;;;;;;;11.30;8.80;;;;;;;;;;5023894;28;20434;-44
2023/11/27 01:39:36;;;;;;;10.90;8.93;;;;;;;;;;5022570;28;20894;-44
2023/11/27 01:42:02;;;;;;;10.38;8.48;;;;;;;;;;5021327;28;20172;-44
2023/11/27 01:44:28;;;;;;;10.18;8.63;;;;;;;;;;5023641;28;20211;-44
2023/11/27 01:46:55;;;;;;;11.10;8.90;;;;;;;;;;5020549;28;20305;-44
2023/11/27 01:49:22;;;;;;;10.73;8.63;;;;;;;;;;5021676;28;20410;-44
2023/11/27 01:51:49;;;;;;;10.57;8.05;;;;;;;;;;5020743;28;20177;-44
2023/11/27 01:54:15;;;;;;;12.20;9.73;;;;;;;;;;5026554;28;20187;-44
2023/11/27 01:56:47;;;;;;;11.35;8.45;;;;;;;;;;5020990;28;20191;-44
2023/11/27 01:59:13;;;;;;;9.30;7.45;;;;;;;;;;5018367;28;20252;-44
2023/11/27 02:01:40;;;;;;;10.95;8.20;;;;;;;;;;5020473;28;20186;-44
2023/11/27 02:04:06;;;;;;;11.80;9.25;;;;;;;;;;5020296;28;20178;-44
2023/11/27 02:06:31;;;;;;;9.93;7.40;;;;;;;;;;5023083;28;20199;-44
2023/11/27 02:08:58;;;;;;;10.40;7.63;;;;;;;;;;5023188;28;20443;-44
2023/11/27 02:11:25;;;;;;;10.23;7.88;;;;;;;;;;5024747;28;20430;-44
2023/11/27 02:13:51;;;;;;;12.38;9.50;;;;;;;;;;5020710;28;20175;-44
2023/11/27 02:16:18;;;;;;;9.83;7.27;;;;;;;;;;5016548;28;20766;-44
2023/11/27 02:18:44;;;;;;;8.40;5.70;;;;;;;;;;5023668;28;20448;-44
2023/11/27 02:21:11;;;;;;;8.65;7.10;;;;;;;;;;5030913;28;20628;-44
2023/11/27 02:23:39;;;;;;;9.80;7.13;;;;;;;;;;5012324;28;20181;-44
2023/11/27 02:26:06;;;;;;;9.18;8.18;;;;;;;;;;5028708;28;20721;-44
2023/11/27 02:28:32;;;;;;;10.90;8.02;;;;;;;;;;5018140;28;20573;-44
2023/11/27 02:30:58;;;;;;;10.02;7.43;;;;;;;;;;5021115;28;20199;-44
2023/11/27 02:33:27;;;;;;;11.02;9.00;;;;;;;;;;5026867;28;20263;-44
2023/11/27 02:35:54;;;;;;;10.50;7.03;;;;;;;;;;5011571;28;20161;-44
2023/11/27 02:38:20;;;;;;;10.02;6.93;;;;;;;;;;5011896;28;20184;-44
2023/11/27 02:40:46;;;;;;;10.40;7.80;;;;;;;;;;4995048;28;20181;-44
2023/11/27 02:43:12;;;;;;;10.48;8.73;;;;;;;;;;5005176;28;20188;-44
2023/11/27 02:45:38;;;;;;;11.37;8.93;;;;;;;;;;5002874;28;20179;-44
2023/11/27 02:48:04;;;;;;;9.40;7.33;;;;;;;;;;4996895;28;21014;-44
2023/11/27 02:50:30;;;;;;;9.95;7.35;;;;;;;;;;5010942;28;20407;-44
2023/11/27 02:52:56;;;;;;;9.98;7.15;;;;;;;;;;4992275;28;20171;-44
2023/11/27 02:55:22;;;;;;;11.50;9.20;;;;;;;;;;5008530;28;20616;-45
2023/11/27 02:57:48;;;;;;;8.63;6.60;;;;;;;;;;4999238;28;20432;-44
2023/11/27 03:00:15;;;;;;;9.47;6.90;;;;;;;;;;5000540;28;20259;-44
2023/11/27 03:02:42;;;;;;;10.90;8.25;;;;;;;;;;5007394;28;20427;-44
2023/11/27 03:05:09;;;;;;;11.70;8.32;;;;;;;;;;4992577;28;20176;-44
2023/11/27 03:07:35;;;;;;;10.05;8.00;;;;;;;;;;5011476;28;20196;-44
2023/11/27 03:10:02;;;;;;;9.70;7.07;;;;;;;;;;4995362;28;20646;-44
2023/11/27 03:12:28;;;;;;;10.80;8.32;;;;;;;;;;5004297;28;20612;-44
2023/11/27 03:14:53;;;;;;;17.40;13.30;;;;;;;;;;5003139;28;20696;-44
2023/11/27 03:17:21;;;;;;;11.30;8.40;;;;;;;;;;5019248;28;20435;-44
2023/11/27 03:19:47;;;;;;;11.18;8.80;;;;;;;;;;5021534;28;20418;-44
2023/11/27 03:22:13;;;;;;;9.43;7.00;;;;;;;;;;5024877;28;20176;-44
2023/11/27 03:24:39;;;;;;;10.27;7.15;;;;;;;;;;5019542;28;20900;-44
2023/11/27 03:27:05;;;;;;;11.80;8.50;;;;;;;;;;5021250;28;20211;-44
2023/11/27 03:29:31;;;;;;;11.02;8.55;;;;;;;;;;5019654;28;20188;-44
2023/11/27 03:31:57;;;;;;;9.48;6.70;;;;;;;;;;5024017;28;20176;-44
2023/11/27 03:34:23;;;;;;;11.07;8.02;;;;;;;;;;5021803;28;20179;-44
2023/11/27 03:36:49;;;;;;;9.68;7.97;;;;;;;;;;5022675;28;20230;-44
2023/11/27 03:39:15;;;;;;;10.23;7.57;;;;;;;;;;5023401;28;20648;-44
2023/11/27 03:41:41;;;;;;;9.90;7.60;;;;;;;;;;5023237;28;20415;-44
2023/11/27 03:44:08;;;;;;;10.43;7.90;;;;;;;;;;5023152;28;20514;-44
2023/11/27 03:46:34;;;;;;;10.40;7.80;;;;;;;;;;5017682;28;20517;-44
2023/11/27 03:49:00;;;;;;;10.02;7.90;;;;;;;;;;5025311;28;20171;-44
2023/11/27 03:51:26;;;;;;;10.52;8.18;;;;;;;;;;5020066;28;20722;-44
2023/11/27 03:53:52;;;;;;;9.60;8.20;;;;;;;;;;5020712;28;20187;-44
2023/11/27 03:56:20;;;;;;;10.67;7.23;;;;;;;;;;5023994;28;20411;-44
2023/11/27 03:58:47;;;;;;;9.80;7.20;;;;;;;;;;5026283;28;20422;-44
2023/11/27 04:01:13;;;;;;;9.70;7.32;;;;;;;;;;5020634;28;20265;-44
2023/11/27 04:03:42;;;;;;;10.80;9.15;;;;;;;;;;5025474;28;20676;-44
2023/11/27 04:06:08;;;;;;;9.52;7.20;;;;;;;;;;5024323;28;20210;-44
2023/11/27 04:08:38;;;;;;;9.98;7.15;;;;;;;;;;5010323;28;20686;-44
2023/11/27 04:11:05;;;;;;;9.98;6.85;;;;;;;;;;5026066;28;20526;-44
2023/11/27 04:13:31;;;;;;;10.00;7.43;;;;;;;;;;5023013;28;20192;-45
2023/11/27 04:15:57;;;;;;;9.87;7.97;;;;;;;;;;5022705;28;20254;-44
2023/11/27 04:18:23;;;;;;;9.32;7.85;;;;;;;;;;5024316;28;21010;-44
2023/11/27 04:20:49;;;;;;;9.73;7.90;;;;;;;;;;5022580;28;20258;-45
2023/11/27 04:23:15;;;;;;;9.20;6.23;;;;;;;;;;5022699;28;20410;-44
2023/11/27 04:25:41;;;;;;;11.95;9.38;;;;;;;;;;5022186;28;20411;-44
2023/11/27 04:28:07;;;;;;;9.23;7.93;;;;;;;;;;5027262;28;20218;-45
2023/11/27 04:30:33;;;;;;;10.63;8.50;;;;;;;;;;5020892;28;20423;-44
2023/11/27 04:32:59;;;;;;;10.37;8.33;;;;;;;;;;5020952;28;20419;-44
2023/11/27 04:35:25;;;;;;;14.20;10.57;;;;;;;;;;5022380;28;20937;-44
2023/11/27 04:37:51;;;;;;;10.73;8.40;;;;;;;;;;5022151;28;20196;-44
2023/11/27 04:40:17;;;;;;;10.27;8.37;;;;;;;;;;5023423;28;20415;-44
2023/11/27 04:42:43;;;;;;;10.00;7.57;;;;;;;;;;5025917;28;20419;-44
2023/11/27 04:45:09;;;;;;;11.17;8.00;;;;;;;;;;5025468;28;20449;-44
2023/11/27 04:47:35;;;;;;;10.40;7.85;;;;;;;;;;5019130;28;20465;-44
2023/11/27 04:50:02;;;;;;;8.85;7.07;;;;;;;;;;5018507;28;20168;-44
2023/11/27 04:52:29;;;;;;;10.52;7.65;;;;;;;;;;5024341;28;20176;-44
2023/11/27 04:54:55;;;;;;;9.25;6.70;;;;;;;;;;5024533;28;20214;-45
2023/11/27 04:57:21;;;;;;;10.77;7.82;;;;;;;;;;5023169;28;20195;-44
2023/11/27 04:59:47;;;;;;;10.48;7.35;;;;;;;;;;5023658;28;20250;-44
2023/11/27 05:02:17;;;;;;;10.23;8.15;;;;;;;;;;5024351;28;20188;-44
2023/11/27 05:04:43;;;;;;;9.98;7.05;;;;;;;;;;5018795;28;20198;-44
2023/11/27 05:07:09;;;;;;;8.03;4.87;;;;;;;;;;5024520;28;20703;-45
2023/11/27 05:09:39;;;;;;;10.95;6.53;;;;;;;;;;5021738;28;20449;-44
2023/11/27 05:12:05;;;;;;;10.20;6.85;;;;;;;;;;5021436;28;20245;-44
2023/11/27 05:14:31;;;;;;;10.27;5.70;;;;;;;;;;5023783;28;20159;-44
2023/11/27 05:16:57;;;;;;;10.13;7.20;;;;;;;;;;5032969;28;20179;-44
2023/11/27 05:19:23;;;;;;;10.87;8.50;;;;;;;;;;5016790;28;20231;-44
2023/11/27 05:21:49;;;;;;;8.80;6.53;;;;;;;;;;5025207;28;20410;-45
2023/11/27 05:24:16;;;;;;;15.73;11.73;;;;;;;;;;5024704;28;20446;-44
2023/11/27 05:26:42;;;;;;;11.20;8.70;;;;;;;;;;5016447;28;20212;-44
2023/11/27 05:29:08;;;;;;;9.73;6.72;;;;;;;;;;5032653;28;20184;-44
2023/11/27 05:31:34;;;;;;;9.50;6.88;;;;;;;;;;5013209;28;20173;-44
2023/11/27 05:34:00;;;;;;;9.93;7.50;;;;;;;;;;5028699;28;20266;-44
2023/11/27 05:36:26;;;;;;;10.13;7.80;;;;;;;;;;5020860;28;20423;-44
2023/11/27 05:38:52;;;;;;;10.02;8.55;;;;;;;;;;5019923;28;20430;-44
2023/11/27 05:41:18;;;;;;;10.50;8.30;;;;;;;;;;5028485;28;20675;-44
2023/11/27 05:43:44;;;;;;;10.05;6.90;;;;;;;;;;5013013;28;20392;-44
2023/11/27 05:46:10;;;;;;;8.53;5.90;;;;;;;;;;4993294;28;20207;-44
2023/11/27 05:48:37;;;;;;;10.37;8.00;;;;;;;;;;5008147;28;20432;-44
2023/11/27 05:51:03;;;;;;;10.98;8.43;;;;;;;;;;5013949;28;20427;-44
2023/11/27 05:53:30;;;;;;;13.57;10.77;;;;;;;;;;5026230;28;20184;-44
2023/11/27 05:55:56;;;;;;;10.15;8.15;;;;;;;;;;5022109;28;20168;-44
2023/11/27 05:58:22;;;;;;;11.97;10.10;;;;;;;;;;5017846;28;20576;-44
2023/11/27 06:00:48;;;;;;;12.02;10.82;;;;;;;;;;5027390;28;20458;-44
2023/11/27 06:03:14;;;;;;;13.30;11.85;;;;;;;;;;5020763;28;20180;-44
2023/11/27 06:05:40;;;;;;;13.93;9.65;;;;;;;;;;5023057;28;20542;-44
2023/11/27 06:08:08;;;;;;;11.18;9.60;;;;;;;;;;5021298;28;20241;-44
2023/11/27 06:10:34;;;;;;;11.35;8.02;;;;;;;;;;5012153;28;20198;-45
2023/11/27 06:12:59;;;;;;;9.03;7.70;;;;;;;;;;5011837;28;20611;-44
2023/11/27 06:15:25;;;;;;;12.97;9.10;;;;;;;;;;5012993;28;20790;-44
2023/11/27 06:17:51;;;;;;;10.82;9.10;;;;;;;;;;5019928;28;20431;-44
2023/11/27 06:20:18;;;;;;;10.60;8.23;;;;;;;;;;5012514;28;20549;-44
2023/11/27 06:22:44;;;;;;;11.05;9.75;;;;;;;;;;5011323;28;20822;-44
2023/11/27 06:25:10;;;;;;;9.90;8.23;;;;;;;;;;5011568;28;20192;-44
2023/11/27 06:27:37;;;;;;;9.57;7.00;;;;;;;;;;5015266;28;20969;-44
2023/11/27 06:30:03;;;;;;;11.23;9.80;;;;;;;;;;5023509;28;20214;-44
2023/11/27 06:32:29;;;;;;;10.30;8.02;;;;;;;;;;5011656;28;20172;-44
2023/11/27 06:34:56;;;;;;;12.20;10.88;;;;;;;;;;5011778;28;20172;-44
2023/11/27 06:37:22;;;;;;;11.65;8.25;;;;;;;;;;5011412;28;20208;-43
2023/11/27 06:39:48;;;;;;;11.50;8.48;;;;;;;;;;5011799;28;20176;-43
2023/11/27 06:42:14;;;;;;;10.82;9.20;;;;;;;;;;5010561;28;20188;-44
2023/11/27 06:44:40;;;;;;;9.75;7.57;;;;;;;;;;5011730;28;20184;-44
2023/11/27 06:47:07;;;;;;;9.20;8.00;;;;;;;;;;5011424;28;20208;-44
2023/11/27 06:49:33;;;;;;;9.10;7.80;;;;;;;;;;5011489;28;20184;-44
2023/11/27 06:51:59;;;;;;;11.27;9.40;;;;;;;;;;5018496;28;20179;-44
2023/11/27 06:54:25;;;;;;;11.45;8.32;;;;;;;;;;5012984;28;20652;-44
2023/11/27 06:56:52;;;;;;;10.53;8.40;;;;;;;;;;5012637;28;20211;-43
2023/11/27 06:59:18;;;;;;;9.80;8.45;;;;;;;;;;5020914;28;20466;-44
2023/11/27 07:01:44;;;;;;;10.77;7.38;;;;;;;;;;5023417;28;20179;-44
2023/11/27 07:04:10;;;;;;;11.20;8.90;;;;;;;;;;5020931;28;20270;-44
2023/11/27 07:06:37;;;;;;;10.68;8.07;;;;;;;;;;5024131;28;20207;-44
2023/11/27 07:09:06;;;;;;;9.45;6.07;;;;;;;;;;5015675;28;20552;-44
2023/11/27 07:11:35;;;;;;;10.10;7.60;;;;;;;;;;5019792;28;20175;-44
2023/11/27 07:14:01;;;;;;;10.80;8.52;;;;;;;;;;5024061;28;20636;-44
2023/11/27 07:16:28;;;;;;;12.02;9.93;;;;;;;;;;5015155;28;20184;-44
2023/11/27 07:18:57;;;;;;;11.77;9.18;;;;;;;;;;5017009;28;20169;-44
2023/11/27 07:21:24;;;;;;;10.85;8.20;;;;;;;;;;5015343;28;20180;-45
2023/11/27 07:23:51;;;;;;;11.20;7.57;;;;;;;;;;5015296;28;20181;-44
2023/11/27 07:26:20;;;;;;;11.13;8.65;;;;;;;;;;5023190;28;20203;-44
2023/11/27 07:28:46;;;;;;;9.55;7.30;;;;;;;;;;5023194;28;20658;-44
2023/11/27 07:31:13;;;;;;;10.10;8.43;;;;;;;;;;5024177;28;20259;-44
2023/11/27 07:33:39;;;;;;;11.50;9.93;;;;;;;;;;5015166;28;20407;-43
2023/11/27 07:36:08;;;;;;;9.07;7.80;;;;;;;;;;5023192;28;20168;-44
2023/11/27 07:38:35;;;;;;;10.90;9.65;;;;;;;;;;5023493;28;20184;-44
2023/11/27 07:41:01;;;;;;;9.75;7.90;;;;;;;;;;5023307;28;20172;-44
2023/11/27 07:43:27;;;;;;;10.13;8.47;;;;;;;;;;5025566;28;20557;-44
2023/11/27 07:45:53;;;;;;;15.20;13.73;;;;;;;;;;5026482;28;20415;-44
2023/11/27 07:48:22;;;;;;;10.68;8.93;;;;;;;;;;5027544;28;20489;-44
2023/11/27 07:50:48;;;;;;;10.63;9.38;;;;;;;;;;5023053;28;20183;-44
2023/11/27 07:53:14;;;;;;;12.47;11.27;;;;;;;;;;5019664;28;20180;-44
2023/11/27 07:55:40;;;;;;;12.45;10.20;;;;;;;;;;5015045;28;20903;-44
2023/11/27 07:58:06;;;;;;;10.75;9.38;;;;;;;;;;5020917;28;20187;-44
2023/11/27 08:00:34;;;;;;;10.48;8.82;;;;;;;;;;5025918;28;20247;-43
2023/11/27 08:03:00;;;;;;;10.40;8.60;;;;;;;;;;5024329;28;20549;-43
2023/11/27 08:05:27;;;;;;;12.00;10.73;;;;;;;;;;5025611;28;20278;-44
2023/11/27 08:07:53;;;;;;;11.00;9.43;;;;;;;;;;5021756;28;20815;-43
2023/11/27 08:10:19;;;;;;;10.20;8.80;;;;;;;;;;5024823;28;20172;-44
2023/11/27 08:12:45;;;;;;;10.18;8.15;;;;;;;;;;5025660;28;20176;-44
2023/11/27 08:15:18;;;;;;;12.65;10.82;;;;;;;;;;5022468;28;20180;-44
2023/11/27 08:17:44;;;;;;;10.32;6.70;;;;;;;;;;5023836;28;20223;-44
2023/11/27 08:20:10;;;;;;;11.80;10.60;;;;;;;;;;5022660;28;20199;-44
2023/11/27 08:22:36;;;;;;;10.40;8.15;;;;;;;;;;5022289;28;20171;-44
2023/11/27 08:25:02;;;;;;;10.93;9.25;;;;;;;;;;5026696;28;20556;-44
2023/11/27 08:27:28;;;;;;;12.30;9.45;;;;;;;;;;5028235;28;20594;-44
2023/11/27 08:29:54;;;;;;;9.30;7.50;;;;;;;;;;5025021;28;20218;-44
2023/11/27 08:32:20;;;;;;;12.30;11.00;;;;;;;;;;5020546;28;20820;-44
2023/11/27 08:34:46;;;;;;;10.83;8.83;;;;;;;;;;5022225;28;20207;-44
2023/11/27 08:37:16;;;;;;;11.98;8.73;;;;;;;;;;5022188;28;20419;-44
2023/11/27 08:39:43;;;;;;;11.10;9.65;;;;;;;;;;5025671;28;20171;-44
2023/11/27 08:42:09;;;;;;;10.65;8.77;;;;;;;;;;5024298;28;20294;-44
2023/11/27 08:44:35;;;;;;;11.10;9.95;;;;;;;;;;5026869;28;20267;-44
2023/11/27 08:47:01;;;;;;;11.13;9.43;;;;;;;;;;5023720;28;20282;-44
2023/11/27 08:49:27;;;;;;;11.43;8.98;;;;;;;;;;5018725;28;20406;-43
2023/11/27 08:51:54;;;;;;;11.30;9.23;;;;;;;;;;5025346;28;20246;-43
2023/11/27 08:54:20;;;;;;;12.02;8.65;;;;;;;;;;5014940;28;20168;-43
2023/11/27 08:56:47;;;;;;;12.23;8.65;;;;;;;;;;5013179;28;20169;-43
2023/11/27 08:59:13;;;;;;;9.95;8.38;;;;;;;;;;5022205;28;20175;-43
2023/11/27 09:01:40;;;;;;;16.90;12.70;;;;;;;;;;5014778;28;20432;-43
2023/11/27 09:04:08;;;;;;;11.38;10.10;;;;;;;;;;5014795;28;20419;-43
2023/11/27 09:06:34;;;;;;;12.57;9.30;;;;;;;;;;5015836;28;20671;-43
2023/11/27 09:09:00;;;;;;;11.77;9.40;;;;;;;;;;5015371;28;20263;-43
2023/11/27 09:11:27;;;;;;;10.83;8.47;;;;;;;;;;5020055;28;20403;-43
2023/11/27 09:13:53;;;;;;;12.10;10.77;;;;;;;;;;5017133;28;20435;-43
2023/11/27 09:16:20;;;;;;;11.88;10.00;;;;;;;;;;5027158;28;20660;-43
2023/11/27 09:18:46;;;;;;;11.13;8.18;;;;;;;;;;5023014;28;20200;-43
2023/11/27 09:21:12;;;;;;;11.13;7.88;;;;;;;;;;5013523;28;20173;-43
2023/11/27 09:23:38;;;;;;;12.20;10.43;;;;;;;;;;5015044;28;20712;-43
2023/11/27 09:26:04;;;;;;;9.87;7.20;;;;;;;;;;5017223;28;20403;-43
2023/11/27 09:28:31;;;;;;;11.18;7.82;;;;;;;;;;5030495;28;20422;-43
2023/11/27 09:30:57;;;;;;;12.13;9.30;;;;;;;;;;5018358;28;20179;-43
2023/11/27 09:33:23;;;;;;;10.37;7.40;;;;;;;;;;5022650;28;20527;-43
2023/11/27 09:35:49;;;;;;;9.70;6.90;;;;;;;;;;5027243;28;20903;-43
2023/11/27 09:38:14;;;;;;;10.60;7.80;;;;;;;;;;5014246;28;20554;-43
2023/11/27 09:40:41;;;;;;;10.13;6.67;;;;;;;;;;5032861;28;20402;-43
2023/11/27 09:43:08;;;;;;;10.50;7.80;;;;;;;;;;5015290;28;20411;-43
2023/11/27 09:45:34;;;;;;;11.57;8.38;;;;;;;;;;5020331;28;20176;-43
2023/11/27 09:48:01;;;;;;;12.10;10.55;;;;;;;;;;5014769;28;20699;-43
2023/11/27 09:50:28;;;;;;;10.02;6.63;;;;;;;;;;5018047;28;20210;-43
2023/11/27 09:53:05;;;;;;;11.00;8.20;;;;;;;;;;5031050;28;20175;-43
2023/11/27 09:55:34;;;;;;;13.75;11.00;;;;;;;;;;5012523;28;20294;-43
2023/11/27 09:58:00;;;;;;;12.13;10.98;;;;;;;;;;5020165;28;20197;-43
2023/11/27 10:00:27;;;;;;;11.07;8.65;;;;;;;;;;5021545;28;20179;-43
2023/11/27 10:02:53;;;;;;;31.50;21.20;;;;;;;;;;5013880;28;20177;-43
2023/11/27 10:05:21;;;;;;;10.97;7.53;;;;;;;;;;5021801;28;20550;-43
2023/11/27 10:07:52;;;;;;;11.25;9.80;;;;;;;;;;5028441;28;20873;-43
2023/11/27 10:10:25;;;;;;;12.35;9.68;;;;;;;;;;5020714;28;20303;-43
2023/11/27 10:12:52;;;;;;;12.32;10.98;;;;;;;;;;5021682;28;20199;-43
2023/11/27 10:15:18;;;;;;;9.98;6.53;;;;;;;;;;5021381;28;20164;-43
2023/11/27 10:17:45;;;;;;;10.73;7.97;;;;;;;;;;5020634;28;20687;-43
2023/11/27 10:20:14;;;;;;;11.75;10.55;;;;;;;;;;5020810;28;20410;-43
2023/11/27 10:22:42;;;;;;;15.50;14.00;;;;;;;;;;5020140;28;20219;-43
2023/11/27 10:25:08;;;;;;;12.80;11.27;;;;;;;;;;5025101;28;20203;-43
2023/11/27 10:27:35;;;;;;;12.52;11.27;;;;;;;;;;5018350;28;20196;-43
2023/11/27 10:30:01;;;;;;;10.00;6.53;;;;;;;;;;5020499;28;20245;-43
2023/11/27 10:32:29;;;;;;;11.38;9.07;;;;;;;;;;5013610;28;20691;-43
2023/11/27 10:34:57;;;;;;;11.25;8.50;;;;;;;;;;5017456;28;20541;-43
2023/11/27 10:37:23;;;;;;;12.32;9.80;;;;;;;;;;5028390;28;20692;-43
2023/11/27 10:39:49;;;;;;;10.98;9.10;;;;;;;;;;5018750;28;20251;-43
2023/11/27 10:42:18;;;;;;;10.45;7.88;;;;;;;;;;5019757;28;20214;-43
2023/11/27 10:44:50;;;;;;;9.93;6.47;;;;;;;;;;5016947;28;20293;-43
2023/11/27 10:47:16;;;;;;;15.35;12.20;;;;;;;;;;5029425;28;20202;-43
2023/11/27 10:49:43;;;;;;;12.52;11.15;;;;;;;;;;5010822;28;20187;-43
2023/11/27 10:52:11;;;;;;;10.85;8.13;;;;;;;;;;5029517;28;20663;-43
2023/11/27 10:54:40;;;;;;;10.57;8.55;;;;;;;;;;5017606;28;20171;-43
2023/11/27 10:57:07;;;;;;;11.75;10.45;;;;;;;;;;5021790;28;20210;-43
2023/11/27 10:59:33;;;;;;;9.50;7.97;;;;;;;;;;5024960;28;20176;-43
2023/11/27 11:02:04;;;;;;;12.48;10.65;;;;;;;;;;5013393;28;20184;-43
2023/11/27 11:04:50;;;;;;;11.35;9.80;;;;;;;;;;5012389;28;20176;-43
2023/11/27 11:07:19;;;;;;;10.95;8.60;;;;;;;;;;5008716;28;20684;-43
2023/11/27 11:09:55;;;;;;;10.20;7.85;;;;;;;;;;5011804;28;20535;-43
2023/11/27 11:12:23;;;;;;;10.73;8.35;;;;;;;;;;5011152;28;20198;-44
2023/11/27 11:14:51;;;;;;;11.40;8.90;;;;;;;;;;5000292;28;20647;-43
2023/11/27 11:17:40;;;;;;;11.88;10.68;;;;;;;;;;4999083;28;20196;-43
2023/11/27 11:20:14;;;;;;;11.63;8.35;;;;;;;;;;5007171;28;20177;-43
2023/11/27 11:22:58;;;;;;;10.90;8.50;;;;;;;;;;5003447;28;20169;-43
2023/11/27 11:25:28;;;;;;;13.38;10.50;;;;;;;;;;5009748;28;20234;-43
2023/11/27 11:28:06;;;;;;;11.52;9.57;;;;;;;;;;5011328;28;20195;-43
2023/11/27 11:30:36;;;;;;;11.57;10.25;;;;;;;;;;5011058;28;20188;-43
2023/11/27 11:33:05;;;;;;;9.93;8.52;;;;;;;;;;5010986;28;20258;-43
2023/11/27 11:35:33;;;;;;;17.30;13.50;;;;;;;;;;5002844;28;20178;-43
2023/11/27 11:37:59;;;;;;;13.40;12.05;;;;;;;;;;5010797;28;20364;-43
2023/11/27 11:40:40;;;;;;;11.03;8.47;;;;;;;;;;5006712;28;20211;-43
2023/11/27 11:43:07;;;;;;;11.48;9.52;;;;;;;;;;4994083;28;20430;-43
2023/11/27 11:45:35;;;;;;;17.48;14.07;;;;;;;;;;5011622;28;20169;-43
2023/11/27 11:48:06;;;;;;;14.63;13.13;;;;;;;;;;4992242;28;20337;-43
2023/11/27 11:50:33;;;;;;;15.13;13.10;;;;;;;;;;5007089;28;20545;-43
2023/11/27 11:53:03;;;;;;;13.60;12.23;;;;;;;;;;5000767;28;20180;-44
2023/11/27 11:55:33;;;;;;;14.68;12.13;;;;;;;;;;5003127;28;20513;-43
2023/11/27 11:58:02;;;;;;;10.88;7.85;;;;;;;;;;5009891;28;20657;-43
2023/11/27 12:01:32;;;;;;;16.85;15.30;;;;;;;;;;4997169;28;20223;-43
2023/11/27 12:03:26;;;;;;;14.73;13.32;;;;;;;;;;4994959;28;20215;-43
2023/11/27 12:05:53;;;;;;;11.70;10.50;;;;;;;;;;4995063;28;20228;-43
2023/11/27 12:08:19;;;;;;;11.82;10.48;;;;;;;;;;5011483;28;20216;-43
2023/11/27 12:10:45;;;;;;;15.07;13.57;;;;;;;;;;5001450;28;20173;-43
2023/11/27 12:13:11;;;;;;;18.70;13.27;;;;;;;;;;5004517;28;20903;-43
2023/11/27 12:15:37;;;;;;;15.93;13.23;;;;;;;;;;5028236;28;20187;-43
2023/11/27 12:18:09;;;;;;;13.20;11.88;;;;;;;;;;5013568;28;20786;-43
2023/11/27 12:20:36;;;;;;;12.00;10.70;;;;;;;;;;4994897;28;20252;-43
2023/11/27 12:23:02;;;;;;;9.60;8.30;;;;;;;;;;5011784;28;20186;-43
2023/11/27 12:25:28;;;;;;;14.77;13.30;;;;;;;;;;5013399;28;20176;-43
2023/11/27 12:27:54;;;;;;;11.37;9.90;;;;;;;;;;5004861;28;20493;-43
2023/11/27 12:30:20;;;;;;;10.98;9.20;;;;;;;;;;4999445;28;20982;-43
2023/11/27 12:32:52;;;;;;;13.93;11.70;;;;;;;;;;5013047;28;20157;-43
2023/11/27 12:35:21;;;;;;;11.63;9.85;;;;;;;;;;4994512;28;20894;-43
2023/11/27 12:37:53;;;;;;;14.15;12.77;;;;;;;;;;5011803;28;20537;-43
2023/11/27 12:40:19;;;;;;;10.65;8.00;;;;;;;;;;4999241;28;20176;-43
2023/11/27 12:42:50;;;;;;;11.20;10.00;;;;;;;;;;5004735;28;20185;-43
2023/11/27 12:45:20;;;;;;;11.52;10.00;;;;;;;;;;5006656;28;20267;-43
2023/11/27 12:47:50;;;;;;;15.10;13.55;;;;;;;;;;4997470;28;20579;-43
2023/11/27 12:50:22;;;;;;;12.40;9.65;;;;;;;;;;5014163;28;20156;-43
2023/11/27 12:52:49;;;;;;;10.13;6.97;;;;;;;;;;4994326;28;20169;-43
2023/11/27 12:55:15;;;;;;;12.00;9.38;;;;;;;;;;5010874;28;20172;-43
2023/11/27 12:57:41;;;;;;;10.80;8.23;;;;;;;;;;5000580;28;20673;-43
2023/11/27 13:00:07;;;;;;;10.37;7.30;;;;;;;;;;5002645;28;20180;-43
2023/11/27 13:02:42;;;;;;;10.20;6.53;;;;;;;;;;5008697;28;20420;-43
2023/11/27 13:05:09;;;;;;;12.32;9.57;;;;;;;;;;4994524;28;20168;-43
2023/11/27 13:07:35;;;;;;;10.80;8.40;;;;;;;;;;5013173;28;20210;-43
2023/11/27 13:10:09;;;;;;;13.67;12.37;;;;;;;;;;4995740;28;20173;-43
2023/11/27 13:12:39;;;;;;;11.07;8.32;;;;;;;;;;5008376;28;20494;-42
2023/11/27 13:15:10;;;;;;;10.18;5.63;;;;;;;;;;5002184;28;20191;-43
2023/11/27 13:17:37;;;;;;;9.05;6.40;;;;;;;;;;5000984;28;20696;-43
2023/11/27 13:20:10;;;;;;;10.52;7.38;;;;;;;;;;5009353;28;20173;-42
2023/11/27 13:22:36;;;;;;;10.82;8.18;;;;;;;;;;5001800;28;20203;-43
2023/11/27 13:25:07;;;;;;;11.27;9.05;;;;;;;;;;5013154;28;20645;-43
2023/11/27 13:27:33;;;;;;;12.45;11.07;;;;;;;;;;4995379;28;20648;-43
2023/11/27 13:29:59;;;;;;;10.83;8.83;;;;;;;;;;5006301;28;20203;-44
2023/11/27 13:32:25;;;;;;;11.40;9.80;;;;;;;;;;5004009;28;20931;-42
2023/11/27 13:34:57;;;;;;;10.57;9.23;;;;;;;;;;4997678;28;20923;-43
2023/11/27 13:37:23;;;;;;;13.95;10.70;;;;;;;;;;5010803;28;20447;-43
2023/11/27 13:39:57;;;;;;;12.85;11.50;;;;;;;;;;4993318;28;20169;-43
2023/11/27 13:42:24;;;;;;;12.90;11.57;;;;;;;;;;5011684;28;20180;-43
2023/11/27 13:44:50;;;;;;;9.75;5.47;;;;;;;;;;4998337;28;20634;-43
2023/11/27 13:47:20;;;;;;;10.35;6.97;;;;;;;;;;5003279;28;20624;-43
2023/11/27 13:49:48;;;;;;;10.90;8.25;;;;;;;;;;5005748;28;20196;-43
2023/11/27 13:52:15;;;;;;;9.90;5.95;;;;;;;;;;4996084;28;20646;-43
2023/11/27 13:54:41;;;;;;;9.57;5.57;;;;;;;;;;5012713;28;20168;-43
2023/11/27 13:57:09;;;;;;;10.70;9.00;;;;;;;;;;4993494;28;20224;-43
2023/11/27 13:59:35;;;;;;;10.35;6.75;;;;;;;;;;4996792;28;20436;-43
2023/11/27 14:02:12;;;;;;;10.43;8.60;;;;;;;;;;5003989;28;20262;-43
2023/11/27 14:04:47;;;;;;;12.82;9.10;;;;;;;;;;5003566;28;20419;-43
2023/11/27 14:07:14;;;;;;;11.57;7.97;;;;;;;;;;4994086;28;20312;-43
2023/11/27 14:12:15;;;;;;;9.88;7.10;;;;;;;;;;5012044;28;20666;-43
2023/11/27 14:14:41;;;;;;;9.93;6.37;;;;;;;;;;4993648;28;20185;-43
2023/11/27 14:17:18;;;;;;;11.48;8.85;;;;;;;;;;5006568;28;20971;-43
2023/11/27 14:27:27;;;;;;;11.03;7.07;;;;;;;;;;5009249;28;20212;-44
2023/11/27 14:29:53;;;;;;;11.82;8.43;;;;;;;;;;4992388;28;20506;-43
2023/11/27 14:32:19;;;;;;;10.90;9.60;;;;;;;;;;5011534;28;20226;-43
2023/11/27 14:34:51;;;;;;;10.05;7.20;;;;;;;;;;4996955;28;20412;-43
2023/11/27 14:37:19;;;;;;;10.13;6.70;;;;;;;;;;5003552;28;20191;-43
2023/11/27 14:39:47;;;;;;;11.13;8.82;;;;;;;;;;5004018;28;20275;-43
2023/11/27 14:42:13;;;;;;;10.27;6.57;;;;;;;;;;4996330;28;20223;-43